sensor_id;sensor_type;location;lat;lon;timestamp;P1;durP1;ratioP1;P2;durP2;ratioP2
21274;SDS011;36472;52.170;20.884;2024-03-08T00:02:04;67.45;;;36.83;;
21274;SDS011;36472;52.170;20.884;2024-03-08T00:04:34;65.50;;;38.25;;
21274;SDS011;36472;52.170;20.884;2024-03-08T00:07:03;65.10;;;37.17;;
21274;SDS011;36472;52.170;20.884;2024-03-08T00:09:32;65.75;;;36.88;;
21274;SDS011;36472;52.170;20.884;2024-03-08T00:12:02;70.10;;;37.88;;
21274;SDS011;36472;52.170;20.884;2024-03-08T00:14:33;65.93;;;35.40;;
21274;SDS011;36472;52.170;20.884;2024-03-08T00:17:04;60.22;;;33.47;;
21274;SDS011;36472;52.170;20.884;2024-03-08T00:19:32;69.03;;;37.60;;
21274;SDS011;36472;52.170;20.884;2024-03-08T00:22:01;63.70;;;37.20;;
21274;SDS011;36472;52.170;20.884;2024-03-08T00:24:31;64.32;;;36.10;;
21274;SDS011;36472;52.170;20.884;2024-03-08T00:26:59;64.30;;;35.08;;
21274;SDS011;36472;52.170;20.884;2024-03-08T00:29:30;71.88;;;41.20;;
21274;SDS011;36472;52.170;20.884;2024-03-08T00:31:59;68.57;;;37.88;;
21274;SDS011;36472;52.170;20.884;2024-03-08T00:34:29;66.93;;;37.70;;
21274;SDS011;36472;52.170;20.884;2024-03-08T00:36:58;66.05;;;37.47;;
21274;SDS011;36472;52.170;20.884;2024-03-08T00:39:27;65.68;;;37.13;;
21274;SDS011;36472;52.170;20.884;2024-03-08T00:41:56;67.25;;;38.88;;
21274;SDS011;36472;52.170;20.884;2024-03-08T00:44:25;64.18;;;34.85;;
21274;SDS011;36472;52.170;20.884;2024-03-08T00:46:55;67.82;;;35.88;;
21274;SDS011;36472;52.170;20.884;2024-03-08T00:49:26;73.45;;;38.75;;
21274;SDS011;36472;52.170;20.884;2024-03-08T00:51:55;73.50;;;37.60;;
21274;SDS011;36472;52.170;20.884;2024-03-08T00:54:24;72.75;;;38.17;;
21274;SDS011;36472;52.170;20.884;2024-03-08T00:56:53;71.22;;;38.97;;
21274;SDS011;36472;52.170;20.884;2024-03-08T00:59:22;68.85;;;36.42;;
21274;SDS011;36472;52.170;20.884;2024-03-08T01:01:51;71.18;;;38.15;;
21274;SDS011;36472;52.170;20.884;2024-03-08T01:04:21;72.55;;;41.97;;
21274;SDS011;36472;52.170;20.884;2024-03-08T01:06:52;70.53;;;42.25;;
21274;SDS011;36472;52.170;20.884;2024-03-08T01:09:23;69.30;;;37.88;;
21274;SDS011;36472;52.170;20.884;2024-03-08T01:11:53;64.15;;;36.13;;
21274;SDS011;36472;52.170;20.884;2024-03-08T01:14:23;69.80;;;39.80;;
21274;SDS011;36472;52.170;20.884;2024-03-08T01:16:54;73.57;;;42.25;;
21274;SDS011;36472;52.170;20.884;2024-03-08T01:23:57;76.97;;;40.25;;
21274;SDS011;36472;52.170;20.884;2024-03-08T01:26:26;66.22;;;35.45;;
21274;SDS011;36472;52.170;20.884;2024-03-08T01:28:55;67.38;;;35.80;;
21274;SDS011;36472;52.170;20.884;2024-03-08T01:31:24;62.80;;;34.65;;
21274;SDS011;36472;52.170;20.884;2024-03-08T01:33:55;75.10;;;39.05;;
21274;SDS011;36472;52.170;20.884;2024-03-08T01:36:25;69.13;;;38.33;;
21274;SDS011;36472;52.170;20.884;2024-03-08T01:38:54;58.78;;;34.80;;
21274;SDS011;36472;52.170;20.884;2024-03-08T01:41:24;71.22;;;37.20;;
21274;SDS011;36472;52.170;20.884;2024-03-08T01:43:57;55.10;;;33.08;;
21274;SDS011;36472;52.170;20.884;2024-03-08T01:46:26;66.90;;;36.63;;
21274;SDS011;36472;52.170;20.884;2024-03-08T01:48:55;61.95;;;34.67;;
21274;SDS011;36472;52.170;20.884;2024-03-08T01:55:57;70.50;;;36.67;;
21274;SDS011;36472;52.170;20.884;2024-03-08T01:58:28;66.43;;;36.28;;
21274;SDS011;36472;52.170;20.884;2024-03-08T02:01:00;65.03;;;34.63;;
21274;SDS011;36472;52.170;20.884;2024-03-08T02:03:31;76.90;;;39.65;;
21274;SDS011;36472;52.170;20.884;2024-03-08T02:06:00;61.75;;;34.20;;
21274;SDS011;36472;52.170;20.884;2024-03-08T02:08:29;62.95;;;33.95;;
21274;SDS011;36472;52.170;20.884;2024-03-08T02:10:58;63.38;;;38.10;;
21274;SDS011;36472;52.170;20.884;2024-03-08T02:13:30;65.68;;;34.45;;
21274;SDS011;36472;52.170;20.884;2024-03-08T02:16:01;63.30;;;34.30;;
21274;SDS011;36472;52.170;20.884;2024-03-08T02:18:33;62.58;;;34.28;;
21274;SDS011;36472;52.170;20.884;2024-03-08T02:21:05;65.88;;;35.75;;
21274;SDS011;36472;52.170;20.884;2024-03-08T02:23:35;64.93;;;34.80;;
21274;SDS011;36472;52.170;20.884;2024-03-08T02:26:05;65.00;;;39.83;;
21274;SDS011;36472;52.170;20.884;2024-03-08T02:28:34;61.88;;;33.80;;
21274;SDS011;36472;52.170;20.884;2024-03-08T02:31:04;63.15;;;35.03;;
21274;SDS011;36472;52.170;20.884;2024-03-08T02:33:35;64.38;;;36.53;;
21274;SDS011;36472;52.170;20.884;2024-03-08T02:36:06;68.30;;;39.23;;
21274;SDS011;36472;52.170;20.884;2024-03-08T02:38:35;64.43;;;36.35;;
21274;SDS011;36472;52.170;20.884;2024-03-08T02:41:05;68.60;;;36.80;;
21274;SDS011;36472;52.170;20.884;2024-03-08T02:43:33;64.03;;;36.92;;
21274;SDS011;36472;52.170;20.884;2024-03-08T02:46:03;72.93;;;37.30;;
21274;SDS011;36472;52.170;20.884;2024-03-08T02:48:32;62.38;;;34.83;;
21274;SDS011;36472;52.170;20.884;2024-03-08T02:51:01;66.38;;;35.42;;
21274;SDS011;36472;52.170;20.884;2024-03-08T02:53:32;66.10;;;35.30;;
21274;SDS011;36472;52.170;20.884;2024-03-08T02:56:02;64.68;;;35.47;;
21274;SDS011;36472;52.170;20.884;2024-03-08T02:58:35;69.47;;;37.00;;
21274;SDS011;36472;52.170;20.884;2024-03-08T03:01:04;65.22;;;35.15;;
21274;SDS011;36472;52.170;20.884;2024-03-08T03:03:33;77.07;;;40.33;;
21274;SDS011;36472;52.170;20.884;2024-03-08T03:06:02;61.10;;;35.33;;
21274;SDS011;36472;52.170;20.884;2024-03-08T03:08:33;67.18;;;35.88;;
21274;SDS011;36472;52.170;20.884;2024-03-08T03:11:02;65.05;;;36.42;;
21274;SDS011;36472;52.170;20.884;2024-03-08T03:13:31;61.05;;;34.13;;
21274;SDS011;36472;52.170;20.884;2024-03-08T03:16:00;61.83;;;33.83;;
21274;SDS011;36472;52.170;20.884;2024-03-08T03:18:30;63.65;;;39.83;;
21274;SDS011;36472;52.170;20.884;2024-03-08T03:21:00;57.03;;;34.67;;
21274;SDS011;36472;52.170;20.884;2024-03-08T03:23:35;59.57;;;33.93;;
21274;SDS011;36472;52.170;20.884;2024-03-08T03:26:07;63.88;;;35.00;;
21274;SDS011;36472;52.170;20.884;2024-03-08T03:28:38;63.67;;;33.60;;
21274;SDS011;36472;52.170;20.884;2024-03-08T03:31:07;63.27;;;36.00;;
21274;SDS011;36472;52.170;20.884;2024-03-08T03:33:38;66.60;;;35.20;;
21274;SDS011;36472;52.170;20.884;2024-03-08T03:36:07;63.70;;;34.25;;
21274;SDS011;36472;52.170;20.884;2024-03-08T03:38:38;68.27;;;39.17;;
21274;SDS011;36472;52.170;20.884;2024-03-08T03:41:07;62.25;;;37.80;;
21274;SDS011;36472;52.170;20.884;2024-03-08T03:43:37;65.20;;;33.83;;
21274;SDS011;36472;52.170;20.884;2024-03-08T03:46:06;60.60;;;35.23;;
21274;SDS011;36472;52.170;20.884;2024-03-08T03:48:37;59.77;;;33.77;;
21274;SDS011;36472;52.170;20.884;2024-03-08T03:51:07;61.85;;;33.55;;
21274;SDS011;36472;52.170;20.884;2024-03-08T03:53:37;61.63;;;36.63;;
21274;SDS011;36472;52.170;20.884;2024-03-08T03:56:07;62.22;;;33.95;;
21274;SDS011;36472;52.170;20.884;2024-03-08T03:58:36;57.63;;;33.80;;
21274;SDS011;36472;52.170;20.884;2024-03-08T04:01:05;65.70;;;37.47;;
21274;SDS011;36472;52.170;20.884;2024-03-08T04:03:34;62.00;;;34.00;;
21274;SDS011;36472;52.170;20.884;2024-03-08T04:06:04;67.65;;;33.90;;
21274;SDS011;36472;52.170;20.884;2024-03-08T04:08:33;61.92;;;33.50;;
21274;SDS011;36472;52.170;20.884;2024-03-08T04:11:03;62.30;;;32.87;;
21274;SDS011;36472;52.170;20.884;2024-03-08T04:13:32;60.13;;;33.90;;
21274;SDS011;36472;52.170;20.884;2024-03-08T04:16:01;63.10;;;35.25;;
21274;SDS011;36472;52.170;20.884;2024-03-08T04:18:35;58.87;;;33.53;;
21274;SDS011;36472;52.170;20.884;2024-03-08T04:21:05;56.57;;;32.93;;
21274;SDS011;36472;52.170;20.884;2024-03-08T04:23:35;63.30;;;34.72;;
21274;SDS011;36472;52.170;20.884;2024-03-08T04:26:05;66.05;;;35.65;;
21274;SDS011;36472;52.170;20.884;2024-03-08T04:28:35;64.80;;;34.50;;
21274;SDS011;36472;52.170;20.884;2024-03-08T04:31:07;61.30;;;36.15;;
21274;SDS011;36472;52.170;20.884;2024-03-08T04:33:37;61.88;;;33.60;;
21274;SDS011;36472;52.170;20.884;2024-03-08T04:36:07;57.60;;;33.92;;
21274;SDS011;36472;52.170;20.884;2024-03-08T04:38:40;59.47;;;33.57;;
21274;SDS011;36472;52.170;20.884;2024-03-08T04:41:11;68.13;;;36.77;;
21274;SDS011;36472;52.170;20.884;2024-03-08T04:43:41;65.82;;;35.67;;
21274;SDS011;36472;52.170;20.884;2024-03-08T04:46:10;68.03;;;39.10;;
21274;SDS011;36472;52.170;20.884;2024-03-08T04:48:39;64.87;;;36.47;;
21274;SDS011;36472;52.170;20.884;2024-03-08T04:51:10;73.15;;;39.42;;
21274;SDS011;36472;52.170;20.884;2024-03-08T04:53:39;71.93;;;41.27;;
21274;SDS011;36472;52.170;20.884;2024-03-08T04:56:09;58.72;;;33.63;;
21274;SDS011;36472;52.170;20.884;2024-03-08T04:58:39;66.90;;;35.28;;
21274;SDS011;36472;52.170;20.884;2024-03-08T05:01:08;67.45;;;36.65;;
21274;SDS011;36472;52.170;20.884;2024-03-08T05:03:37;64.22;;;39.28;;
21274;SDS011;36472;52.170;20.884;2024-03-08T05:06:07;69.13;;;36.63;;
21274;SDS011;36472;52.170;20.884;2024-03-08T05:08:36;69.78;;;36.20;;
21274;SDS011;36472;52.170;20.884;2024-03-08T05:11:05;65.03;;;35.78;;
21274;SDS011;36472;52.170;20.884;2024-03-08T05:13:34;66.88;;;35.63;;
21274;SDS011;36472;52.170;20.884;2024-03-08T05:16:06;66.35;;;35.03;;
21274;SDS011;36472;52.170;20.884;2024-03-08T05:18:35;67.65;;;35.88;;
21274;SDS011;36472;52.170;20.884;2024-03-08T05:21:04;75.73;;;42.27;;
21274;SDS011;36472;52.170;20.884;2024-03-08T05:28:07;68.68;;;35.25;;
21274;SDS011;36472;52.170;20.884;2024-03-08T05:30:37;65.37;;;33.40;;
21274;SDS011;36472;52.170;20.884;2024-03-08T05:33:08;61.83;;;34.07;;
21274;SDS011;36472;52.170;20.884;2024-03-08T05:35:38;64.93;;;35.27;;
21274;SDS011;36472;52.170;20.884;2024-03-08T05:42:39;63.67;;;33.43;;
21274;SDS011;36472;52.170;20.884;2024-03-08T05:45:08;69.30;;;36.63;;
21274;SDS011;36472;52.170;20.884;2024-03-08T05:47:38;69.30;;;35.00;;
21274;SDS011;36472;52.170;20.884;2024-03-08T05:50:09;67.03;;;34.72;;
21274;SDS011;36472;52.170;20.884;2024-03-08T05:52:38;72.50;;;35.55;;
21274;SDS011;36472;52.170;20.884;2024-03-08T05:55:07;60.00;;;35.40;;
21274;SDS011;36472;52.170;20.884;2024-03-08T05:57:37;59.85;;;31.73;;
21274;SDS011;36472;52.170;20.884;2024-03-08T06:00:07;64.50;;;35.83;;
21274;SDS011;36472;52.170;20.884;2024-03-08T06:02:39;64.30;;;35.13;;
21274;SDS011;36472;52.170;20.884;2024-03-08T06:05:10;62.63;;;35.45;;
21274;SDS011;36472;52.170;20.884;2024-03-08T06:07:39;62.78;;;33.95;;
21274;SDS011;36472;52.170;20.884;2024-03-08T06:10:09;67.90;;;36.67;;
21274;SDS011;36472;52.170;20.884;2024-03-08T06:12:40;66.05;;;34.22;;
21274;SDS011;36472;52.170;20.884;2024-03-08T06:15:09;67.03;;;34.87;;
21274;SDS011;36472;52.170;20.884;2024-03-08T06:17:42;69.30;;;39.33;;
21274;SDS011;36472;52.170;20.884;2024-03-08T06:20:12;66.38;;;34.75;;
21274;SDS011;36472;52.170;20.884;2024-03-08T06:22:42;63.13;;;34.47;;
21274;SDS011;36472;52.170;20.884;2024-03-08T06:25:11;71.43;;;36.60;;
21274;SDS011;36472;52.170;20.884;2024-03-08T06:27:42;70.38;;;38.63;;
21274;SDS011;36472;52.170;20.884;2024-03-08T06:30:13;62.08;;;36.25;;
21274;SDS011;36472;52.170;20.884;2024-03-08T06:32:43;67.43;;;37.63;;
21274;SDS011;36472;52.170;20.884;2024-03-08T06:35:14;72.95;;;41.35;;
21274;SDS011;36472;52.170;20.884;2024-03-08T06:37:43;77.93;;;41.25;;
21274;SDS011;36472;52.170;20.884;2024-03-08T06:40:12;80.35;;;42.17;;
21274;SDS011;36472;52.170;20.884;2024-03-08T06:42:42;71.50;;;42.38;;
21274;SDS011;36472;52.170;20.884;2024-03-08T06:45:11;83.00;;;43.25;;
21274;SDS011;36472;52.170;20.884;2024-03-08T06:47:42;80.38;;;42.28;;
21274;SDS011;36472;52.170;20.884;2024-03-08T06:50:14;73.55;;;41.67;;
21274;SDS011;36472;52.170;20.884;2024-03-08T06:52:43;72.70;;;41.50;;
21274;SDS011;36472;52.170;20.884;2024-03-08T06:55:15;80.70;;;42.17;;
21274;SDS011;36472;52.170;20.884;2024-03-08T06:57:44;77.47;;;41.88;;
21274;SDS011;36472;52.170;20.884;2024-03-08T07:04:45;88.50;;;49.00;;
21274;SDS011;36472;52.170;20.884;2024-03-08T07:07:15;77.65;;;41.65;;
21274;SDS011;36472;52.170;20.884;2024-03-08T07:09:47;87.63;;;50.25;;
21274;SDS011;36472;52.170;20.884;2024-03-08T07:12:17;87.28;;;44.47;;
21274;SDS011;36472;52.170;20.884;2024-03-08T07:14:48;85.03;;;50.05;;
21274;SDS011;36472;52.170;20.884;2024-03-08T07:17:18;78.40;;;48.28;;
21274;SDS011;36472;52.170;20.884;2024-03-08T07:19:47;81.32;;;48.22;;
21274;SDS011;36472;52.170;20.884;2024-03-08T07:22:17;78.22;;;44.28;;
21274;SDS011;36472;52.170;20.884;2024-03-08T07:24:46;76.55;;;42.42;;
21274;SDS011;36472;52.170;20.884;2024-03-08T07:27:31;78.10;;;43.97;;
21274;SDS011;36472;52.170;20.884;2024-03-08T07:30:01;78.22;;;43.47;;
21274;SDS011;36472;52.170;20.884;2024-03-08T07:32:34;83.60;;;43.22;;
21274;SDS011;36472;52.170;20.884;2024-03-08T07:35:03;79.13;;;40.80;;
21274;SDS011;36472;52.170;20.884;2024-03-08T07:37:34;71.25;;;40.88;;
21274;SDS011;36472;52.170;20.884;2024-03-08T07:40:03;77.22;;;44.22;;
21274;SDS011;36472;52.170;20.884;2024-03-08T07:42:34;80.13;;;45.90;;
21274;SDS011;36472;52.170;20.884;2024-03-08T07:45:04;69.70;;;39.80;;
21274;SDS011;36472;52.170;20.884;2024-03-08T07:47:35;79.85;;;45.72;;
21274;SDS011;36472;52.170;20.884;2024-03-08T07:50:04;71.65;;;40.78;;
21274;SDS011;36472;52.170;20.884;2024-03-08T07:52:36;71.13;;;42.47;;
21274;SDS011;36472;52.170;20.884;2024-03-08T07:55:06;72.47;;;41.53;;
21274;SDS011;36472;52.170;20.884;2024-03-08T07:57:39;83.97;;;44.42;;
21274;SDS011;36472;52.170;20.884;2024-03-08T08:00:10;68.10;;;40.90;;
21274;SDS011;36472;52.170;20.884;2024-03-08T08:02:44;69.55;;;42.33;;
21274;SDS011;36472;52.170;20.884;2024-03-08T08:05:14;76.32;;;42.25;;
21274;SDS011;36472;52.170;20.884;2024-03-08T08:07:46;69.35;;;39.13;;
21274;SDS011;36472;52.170;20.884;2024-03-08T08:10:18;65.88;;;41.90;;
21274;SDS011;36472;52.170;20.884;2024-03-08T08:12:49;62.80;;;38.72;;
21274;SDS011;36472;52.170;20.884;2024-03-08T08:15:19;69.72;;;39.58;;
21274;SDS011;36472;52.170;20.884;2024-03-08T08:17:49;71.10;;;40.83;;
21274;SDS011;36472;52.170;20.884;2024-03-08T08:20:19;66.47;;;39.40;;
21274;SDS011;36472;52.170;20.884;2024-03-08T08:22:50;63.22;;;40.20;;
21274;SDS011;36472;52.170;20.884;2024-03-08T08:25:19;64.28;;;39.35;;
21274;SDS011;36472;52.170;20.884;2024-03-08T08:27:51;62.13;;;38.55;;
21274;SDS011;36472;52.170;20.884;2024-03-08T08:30:21;68.97;;;41.28;;
21274;SDS011;36472;52.170;20.884;2024-03-08T08:37:22;62.03;;;38.25;;
21274;SDS011;36472;52.170;20.884;2024-03-08T08:39:52;61.67;;;37.30;;
21274;SDS011;36472;52.170;20.884;2024-03-08T08:42:22;58.78;;;35.97;;
21274;SDS011;36472;52.170;20.884;2024-03-08T08:44:50;44.15;;;30.30;;
21274;SDS011;36472;52.170;20.884;2024-03-08T08:47:22;70.40;;;38.42;;
21274;SDS011;36472;52.170;20.884;2024-03-08T08:49:51;46.33;;;29.65;;
21274;SDS011;36472;52.170;20.884;2024-03-08T08:52:21;46.35;;;28.92;;
21274;SDS011;36472;52.170;20.884;2024-03-08T08:54:50;48.30;;;29.80;;
21274;SDS011;36472;52.170;20.884;2024-03-08T08:57:21;38.15;;;23.02;;
21274;SDS011;36472;52.170;20.884;2024-03-08T08:59:50;33.92;;;23.27;;
21274;SDS011;36472;52.170;20.884;2024-03-08T09:02:19;34.50;;;22.17;;
21274;SDS011;36472;52.170;20.884;2024-03-08T09:04:48;46.60;;;29.98;;
21274;SDS011;36472;52.170;20.884;2024-03-08T09:07:18;49.67;;;27.55;;
21274;SDS011;36472;52.170;20.884;2024-03-08T09:09:47;40.97;;;26.40;;
21274;SDS011;36472;52.170;20.884;2024-03-08T09:12:17;34.00;;;21.83;;
21274;SDS011;36472;52.170;20.884;2024-03-08T09:14:46;30.48;;;18.83;;
21274;SDS011;36472;52.170;20.884;2024-03-08T09:17:16;27.13;;;17.40;;
21274;SDS011;36472;52.170;20.884;2024-03-08T09:19:47;25.85;;;17.70;;
21274;SDS011;36472;52.170;20.884;2024-03-08T09:22:17;28.38;;;18.25;;
21274;SDS011;36472;52.170;20.884;2024-03-08T09:24:45;24.35;;;17.02;;
21274;SDS011;36472;52.170;20.884;2024-03-08T09:27:15;25.27;;;17.75;;
21274;SDS011;36472;52.170;20.884;2024-03-08T09:29:46;24.80;;;16.25;;
21274;SDS011;36472;52.170;20.884;2024-03-08T09:32:15;23.02;;;16.63;;
21274;SDS011;36472;52.170;20.884;2024-03-08T09:34:45;22.95;;;15.57;;
21274;SDS011;36472;52.170;20.884;2024-03-08T09:37:14;27.05;;;17.20;;
21274;SDS011;36472;52.170;20.884;2024-03-08T09:39:43;26.85;;;19.17;;
21274;SDS011;36472;52.170;20.884;2024-03-08T09:42:12;31.02;;;20.58;;
21274;SDS011;36472;52.170;20.884;2024-03-08T09:44:43;30.90;;;19.63;;
21274;SDS011;36472;52.170;20.884;2024-03-08T09:47:15;30.30;;;20.08;;
21274;SDS011;36472;52.170;20.884;2024-03-08T09:49:49;28.08;;;19.92;;
21274;SDS011;36472;52.170;20.884;2024-03-08T09:52:20;29.60;;;20.08;;
21274;SDS011;36472;52.170;20.884;2024-03-08T09:54:49;27.73;;;18.83;;
21274;SDS011;36472;52.170;20.884;2024-03-08T09:57:18;28.40;;;19.33;;
21274;SDS011;36472;52.170;20.884;2024-03-08T09:59:50;32.63;;;19.80;;
21274;SDS011;36472;52.170;20.884;2024-03-08T10:02:20;28.73;;;17.98;;
21274;SDS011;36472;52.170;20.884;2024-03-08T10:04:49;25.08;;;18.38;;
21274;SDS011;36472;52.170;20.884;2024-03-08T10:07:20;26.30;;;19.33;;
21274;SDS011;36472;52.170;20.884;2024-03-08T10:09:51;24.17;;;18.15;;
21274;SDS011;36472;52.170;20.884;2024-03-08T10:12:21;25.98;;;18.55;;
21274;SDS011;36472;52.170;20.884;2024-03-08T10:14:51;29.40;;;18.15;;
21274;SDS011;36472;52.170;20.884;2024-03-08T10:17:23;29.42;;;20.33;;
21274;SDS011;36472;52.170;20.884;2024-03-08T10:19:53;28.05;;;19.35;;
21274;SDS011;36472;52.170;20.884;2024-03-08T10:22:23;28.90;;;18.80;;
21274;SDS011;36472;52.170;20.884;2024-03-08T10:24:53;28.83;;;18.33;;
21274;SDS011;36472;52.170;20.884;2024-03-08T10:27:23;28.95;;;18.17;;
21274;SDS011;36472;52.170;20.884;2024-03-08T10:29:54;31.95;;;18.75;;
21274;SDS011;36472;52.170;20.884;2024-03-08T10:32:26;28.25;;;19.55;;
21274;SDS011;36472;52.170;20.884;2024-03-08T10:34:55;27.20;;;19.45;;
21274;SDS011;36472;52.170;20.884;2024-03-08T10:37:25;26.77;;;18.30;;
21274;SDS011;36472;52.170;20.884;2024-03-08T10:39:59;28.77;;;19.38;;
21274;SDS011;36472;52.170;20.884;2024-03-08T10:42:40;27.08;;;17.85;;
21274;SDS011;36472;52.170;20.884;2024-03-08T10:45:19;27.38;;;18.48;;
21274;SDS011;36472;52.170;20.884;2024-03-08T10:48:11;26.63;;;17.83;;
21274;SDS011;36472;52.170;20.884;2024-03-08T10:51:04;23.05;;;17.00;;
21274;SDS011;36472;52.170;20.884;2024-03-08T10:53:38;27.83;;;18.77;;
21274;SDS011;36472;52.170;20.884;2024-03-08T10:56:08;25.98;;;18.35;;
21274;SDS011;36472;52.170;20.884;2024-03-08T10:58:38;27.73;;;18.13;;
21274;SDS011;36472;52.170;20.884;2024-03-08T11:01:12;24.98;;;17.63;;
21274;SDS011;36472;52.170;20.884;2024-03-08T11:03:46;26.48;;;17.80;;
21274;SDS011;36472;52.170;20.884;2024-03-08T11:06:22;23.60;;;15.82;;
21274;SDS011;36472;52.170;20.884;2024-03-08T11:08:59;24.20;;;17.00;;
21274;SDS011;36472;52.170;20.884;2024-03-08T11:11:28;24.02;;;15.60;;
21274;SDS011;36472;52.170;20.884;2024-03-08T11:14:01;23.83;;;17.17;;
21274;SDS011;36472;52.170;20.884;2024-03-08T11:16:43;24.08;;;16.60;;
21274;SDS011;36472;52.170;20.884;2024-03-08T11:19:23;25.88;;;17.80;;
21274;SDS011;36472;52.170;20.884;2024-03-08T11:21:59;23.42;;;16.60;;
21274;SDS011;36472;52.170;20.884;2024-03-08T11:24:36;22.75;;;17.38;;
21274;SDS011;36472;52.170;20.884;2024-03-08T11:27:08;23.65;;;16.23;;
21274;SDS011;36472;52.170;20.884;2024-03-08T11:29:39;25.60;;;15.95;;
21274;SDS011;36472;52.170;20.884;2024-03-08T11:32:10;28.02;;;16.23;;
21274;SDS011;36472;52.170;20.884;2024-03-08T11:34:43;21.00;;;15.07;;
21274;SDS011;36472;52.170;20.884;2024-03-08T11:37:17;21.67;;;13.77;;
21274;SDS011;36472;52.170;20.884;2024-03-08T11:39:49;21.88;;;15.52;;
21274;SDS011;36472;52.170;20.884;2024-03-08T11:42:19;23.88;;;15.05;;
21274;SDS011;36472;52.170;20.884;2024-03-08T11:44:50;19.85;;;14.70;;
21274;SDS011;36472;52.170;20.884;2024-03-08T11:51:52;24.05;;;16.13;;
21274;SDS011;36472;52.170;20.884;2024-03-08T11:54:22;22.05;;;16.27;;
21274;SDS011;36472;52.170;20.884;2024-03-08T11:56:51;21.33;;;16.20;;
21274;SDS011;36472;52.170;20.884;2024-03-08T11:59:22;19.85;;;15.32;;
21274;SDS011;36472;52.170;20.884;2024-03-08T12:02:01;23.70;;;16.38;;
21274;SDS011;36472;52.170;20.884;2024-03-08T12:04:32;23.27;;;17.02;;
21274;SDS011;36472;52.170;20.884;2024-03-08T12:07:04;19.48;;;15.27;;
21274;SDS011;36472;52.170;20.884;2024-03-08T12:09:39;22.83;;;16.10;;
21274;SDS011;36472;52.170;20.884;2024-03-08T12:12:13;23.85;;;16.55;;
21274;SDS011;36472;52.170;20.884;2024-03-08T12:14:42;22.48;;;15.70;;
21274;SDS011;36472;52.170;20.884;2024-03-08T12:17:12;24.58;;;16.20;;
21274;SDS011;36472;52.170;20.884;2024-03-08T12:19:45;24.73;;;17.77;;
21274;SDS011;36472;52.170;20.884;2024-03-08T12:22:17;20.23;;;15.77;;
21274;SDS011;36472;52.170;20.884;2024-03-08T12:25:02;25.67;;;18.15;;
21274;SDS011;36472;52.170;20.884;2024-03-08T12:27:33;26.50;;;17.42;;
21274;SDS011;36472;52.170;20.884;2024-03-08T12:30:14;23.95;;;16.38;;
21274;SDS011;36472;52.170;20.884;2024-03-08T12:32:51;22.52;;;16.85;;
21274;SDS011;36472;52.170;20.884;2024-03-08T12:35:25;25.60;;;17.10;;
21274;SDS011;36472;52.170;20.884;2024-03-08T12:37:57;26.55;;;18.13;;
21274;SDS011;36472;52.170;20.884;2024-03-08T12:40:28;25.13;;;16.77;;
21274;SDS011;36472;52.170;20.884;2024-03-08T12:43:00;28.52;;;18.60;;
21274;SDS011;36472;52.170;20.884;2024-03-08T12:45:29;26.50;;;18.15;;
21274;SDS011;36472;52.170;20.884;2024-03-08T12:48:00;21.02;;;15.93;;
21274;SDS011;36472;52.170;20.884;2024-03-08T12:50:30;26.92;;;16.00;;
21274;SDS011;36472;52.170;20.884;2024-03-08T12:53:00;24.85;;;16.63;;
21274;SDS011;36472;52.170;20.884;2024-03-08T12:55:34;27.75;;;17.27;;
21274;SDS011;36472;52.170;20.884;2024-03-08T12:58:03;24.65;;;16.20;;
21274;SDS011;36472;52.170;20.884;2024-03-08T13:00:34;27.20;;;15.88;;
21274;SDS011;36472;52.170;20.884;2024-03-08T13:03:04;23.40;;;15.15;;
21274;SDS011;36472;52.170;20.884;2024-03-08T13:05:33;22.90;;;15.98;;
21274;SDS011;36472;52.170;20.884;2024-03-08T13:08:08;24.75;;;16.67;;
21274;SDS011;36472;52.170;20.884;2024-03-08T13:10:40;24.70;;;16.63;;
21274;SDS011;36472;52.170;20.884;2024-03-08T13:13:11;29.75;;;17.23;;
21274;SDS011;36472;52.170;20.884;2024-03-08T13:16:02;23.70;;;16.17;;
21274;SDS011;36472;52.170;20.884;2024-03-08T13:18:35;26.50;;;16.52;;
21274;SDS011;36472;52.170;20.884;2024-03-08T13:21:04;25.35;;;16.20;;
21274;SDS011;36472;52.170;20.884;2024-03-08T13:23:36;27.25;;;17.77;;
21274;SDS011;36472;52.170;20.884;2024-03-08T13:26:07;24.35;;;16.80;;
21274;SDS011;36472;52.170;20.884;2024-03-08T13:28:39;30.25;;;19.05;;
21274;SDS011;36472;52.170;20.884;2024-03-08T13:35:41;30.98;;;19.08;;
21274;SDS011;36472;52.170;20.884;2024-03-08T13:38:10;24.88;;;16.67;;
21274;SDS011;36472;52.170;20.884;2024-03-08T13:40:42;25.33;;;16.95;;
21274;SDS011;36472;52.170;20.884;2024-03-08T13:43:10;27.00;;;16.40;;
21274;SDS011;36472;52.170;20.884;2024-03-08T13:45:40;24.88;;;18.10;;
21274;SDS011;36472;52.170;20.884;2024-03-08T13:48:09;26.77;;;17.02;;
21274;SDS011;36472;52.170;20.884;2024-03-08T13:50:40;26.70;;;16.60;;
21274;SDS011;36472;52.170;20.884;2024-03-08T13:53:09;27.80;;;17.08;;
21274;SDS011;36472;52.170;20.884;2024-03-08T13:55:38;25.42;;;16.30;;
21274;SDS011;36472;52.170;20.884;2024-03-08T14:02:40;26.23;;;15.05;;
21274;SDS011;36472;52.170;20.884;2024-03-08T14:05:10;25.20;;;15.90;;
21274;SDS011;36472;52.170;20.884;2024-03-08T14:07:41;24.77;;;15.73;;
21274;SDS011;36472;52.170;20.884;2024-03-08T14:10:13;25.75;;;15.73;;
21274;SDS011;36472;52.170;20.884;2024-03-08T14:12:42;25.60;;;16.80;;
21274;SDS011;36472;52.170;20.884;2024-03-08T14:15:11;23.30;;;15.63;;
21274;SDS011;36472;52.170;20.884;2024-03-08T14:17:42;26.92;;;16.05;;
21274;SDS011;36472;52.170;20.884;2024-03-08T14:20:14;26.83;;;16.25;;
21274;SDS011;36472;52.170;20.884;2024-03-08T14:22:45;28.83;;;17.83;;
21274;SDS011;36472;52.170;20.884;2024-03-08T14:25:14;25.67;;;15.55;;
21274;SDS011;36472;52.170;20.884;2024-03-08T14:27:45;25.27;;;17.27;;
21274;SDS011;36472;52.170;20.884;2024-03-08T14:30:16;26.75;;;16.98;;
21274;SDS011;36472;52.170;20.884;2024-03-08T14:33:01;25.55;;;17.30;;
21274;SDS011;36472;52.170;20.884;2024-03-08T14:35:30;30.60;;;17.45;;
21274;SDS011;36472;52.170;20.884;2024-03-08T14:37:59;27.65;;;16.95;;
21274;SDS011;36472;52.170;20.884;2024-03-08T14:40:28;25.90;;;17.27;;
21274;SDS011;36472;52.170;20.884;2024-03-08T14:42:57;31.83;;;18.88;;
21274;SDS011;36472;52.170;20.884;2024-03-08T14:45:32;23.15;;;15.80;;
21274;SDS011;36472;52.170;20.884;2024-03-08T14:48:03;25.40;;;16.38;;
21274;SDS011;36472;52.170;20.884;2024-03-08T14:50:33;26.85;;;16.98;;
21274;SDS011;36472;52.170;20.884;2024-03-08T14:53:04;28.17;;;17.33;;
21274;SDS011;36472;52.170;20.884;2024-03-08T14:55:34;28.35;;;17.08;;
21274;SDS011;36472;52.170;20.884;2024-03-08T14:58:03;25.45;;;16.50;;
21274;SDS011;36472;52.170;20.884;2024-03-08T15:00:32;25.17;;;15.85;;
21274;SDS011;36472;52.170;20.884;2024-03-08T15:03:04;26.80;;;16.23;;
21274;SDS011;36472;52.170;20.884;2024-03-08T15:10:06;24.60;;;15.27;;
21274;SDS011;36472;52.170;20.884;2024-03-08T15:12:38;31.10;;;17.85;;
21274;SDS011;36472;52.170;20.884;2024-03-08T15:15:07;27.13;;;17.58;;